ADDS METAR Data INFO
IDs: Format: Raw Decoded Include TAF

Data at: 1822 UTC 20 Jul 2018

KGON 201756Z 19010KT 10SM FEW040 25/18 A3016 RMK AO2 SLP214 T02500183 10250 20217 58006 $